createdAt,value
2018-03-21T00:00:20.915Z,-3.00
2018-03-21T00:02:48.402Z,-3.10
2018-03-21T00:05:15.875Z,-3.00
2018-03-21T00:07:43.360Z,-3.10
2018-03-21T00:10:10.959Z,-3.10
2018-03-21T00:12:38.465Z,-3.20
2018-03-21T00:15:05.898Z,-3.20
2018-03-21T00:17:33.402Z,-3.20
2018-03-21T00:20:00.890Z,-3.20
2018-03-21T00:22:28.358Z,-3.10
2018-03-21T00:24:55.850Z,-3.10
2018-03-21T00:27:23.314Z,-3.10
2018-03-21T00:29:50.819Z,-3.10
2018-03-21T00:32:18.406Z,-3.10
2018-03-21T00:34:45.991Z,-3.10
2018-03-21T00:37:13.461Z,-3.00
2018-03-21T00:39:40.950Z,-3.10
2018-03-21T00:42:08.558Z,-3.10
2018-03-21T00:44:36.135Z,-3.00
2018-03-21T00:47:03.720Z,-3.00
2018-03-21T00:49:31.968Z,-3.00
2018-03-21T00:51:59.506Z,-3.00
2018-03-21T00:54:27.083Z,-3.00
2018-03-21T00:56:54.549Z,-3.00
2018-03-21T00:59:22.024Z,-3.00
2018-03-21T01:01:49.510Z,-3.10
2018-03-21T01:04:16.978Z,-3.10
2018-03-21T01:06:44.487Z,-3.10
2018-03-21T01:09:11.974Z,-3.00
2018-03-21T01:11:39.462Z,-2.90
2018-03-21T01:14:06.927Z,-3.10
2018-03-21T01:16:34.429Z,-3.10
2018-03-21T01:19:01.922Z,-3.10
2018-03-21T01:21:29.422Z,-3.10
2018-03-21T01:23:56.885Z,-3.20
2018-03-21T01:26:24.392Z,-3.20
2018-03-21T01:28:51.851Z,-3.20
2018-03-21T01:31:19.335Z,-3.20
2018-03-21T01:33:46.804Z,-3.20
2018-03-21T01:36:15.012Z,-3.20
2018-03-21T01:38:42.544Z,-3.20
2018-03-21T01:41:10.818Z,-3.30
2018-03-21T01:43:39.115Z,-3.40
2018-03-21T01:46:06.589Z,-3.40
2018-03-21T01:48:34.075Z,-3.50
2018-03-21T01:51:01.570Z,-3.50
2018-03-21T01:53:29.058Z,-3.60
2018-03-21T01:55:56.532Z,-3.70
2018-03-21T01:58:24.043Z,-3.70
2018-03-21T02:00:51.610Z,-3.70
2018-03-21T02:03:19.095Z,-3.80
2018-03-21T02:05:46.566Z,-3.90
2018-03-21T02:08:15.023Z,-4.00
2018-03-21T02:10:43.798Z,-4.10
2018-03-21T02:13:11.262Z,-4.10
2018-03-21T02:15:38.736Z,-4.30
2018-03-21T02:18:06.268Z,-4.40
2018-03-21T02:20:33.826Z,-4.40
2018-03-21T02:23:01.299Z,-4.60
2018-03-21T02:25:29.551Z,-4.90
2018-03-21T02:27:57.018Z,-4.90
2018-03-21T02:30:24.492Z,-5.00
2018-03-21T02:32:51.998Z,-5.00
2018-03-21T02:35:19.497Z,-5.20
2018-03-21T02:37:48.496Z,-5.30
2018-03-21T02:40:15.976Z,-5.20
2018-03-21T02:42:43.460Z,-5.30
2018-03-21T02:45:10.951Z,-5.30
2018-03-21T02:47:38.461Z,-5.30
2018-03-21T02:50:06.700Z,-5.40
2018-03-21T02:52:34.215Z,-5.40
2018-03-21T02:55:01.693Z,-5.50
2018-03-21T02:57:29.186Z,-5.50
2018-03-21T02:59:56.687Z,-5.50
2018-03-21T03:02:24.164Z,-5.50
2018-03-21T03:04:51.658Z,-5.60
2018-03-21T03:07:19.122Z,-5.70
2018-03-21T03:09:46.602Z,-5.80
2018-03-21T03:12:14.534Z,-5.80
2018-03-21T03:14:42.124Z,-5.90
2018-03-21T03:17:09.607Z,-5.90
2018-03-21T03:19:37.095Z,-6.00
2018-03-21T03:22:05.354Z,-6.10
2018-03-21T03:24:32.843Z,-6.10
2018-03-21T03:27:00.342Z,-6.20
2018-03-21T03:29:27.840Z,-6.20
2018-03-21T03:31:56.114Z,-6.20
2018-03-21T03:34:23.612Z,-6.20
2018-03-21T03:36:51.223Z,-6.10
2018-03-21T03:39:19.467Z,-6.20
2018-03-21T03:41:46.956Z,-6.30
2018-03-21T03:44:15.448Z,-6.20
2018-03-21T03:46:42.987Z,-6.20
2018-03-21T03:49:10.553Z,-6.30
2018-03-21T03:51:38.018Z,-6.30
2018-03-21T03:54:05.526Z,-6.40
2018-03-21T03:56:33.112Z,-6.50
2018-03-21T03:59:01.361Z,-6.60
2018-03-21T04:01:28.863Z,-6.60
2018-03-21T04:03:56.338Z,-6.70
2018-03-21T04:06:23.865Z,-6.60
2018-03-21T04:08:52.132Z,-6.60
2018-03-21T04:11:19.603Z,-6.60
2018-03-21T04:13:47.098Z,-6.60
2018-03-21T04:16:14.592Z,-6.50
2018-03-21T04:18:44.086Z,-6.60
2018-03-21T04:21:12.358Z,-6.70
2018-03-21T04:23:40.597Z,-6.80
2018-03-21T04:26:08.090Z,-6.80
2018-03-21T04:28:35.664Z,-6.80
2018-03-21T04:31:03.165Z,-6.90
2018-03-21T04:33:30.650Z,-6.80
2018-03-21T04:35:58.154Z,-6.90
2018-03-21T04:38:25.728Z,-6.80
2018-03-21T04:40:53.212Z,-6.80
2018-03-21T04:43:20.683Z,-6.90
2018-03-21T04:45:48.163Z,-6.70
2018-03-21T04:48:15.632Z,-6.60
2018-03-21T04:50:43.666Z,-6.50
2018-03-21T04:53:11.137Z,-6.50
2018-03-21T04:55:38.624Z,-6.50
2018-03-21T04:58:06.112Z,-6.60
2018-03-21T05:00:33.583Z,-6.60
2018-03-21T05:03:01.200Z,-6.60
2018-03-21T05:05:29.466Z,-6.70
2018-03-21T05:07:56.994Z,-6.70
2018-03-21T05:10:25.255Z,-6.80
2018-03-21T05:12:52.762Z,-6.80
2018-03-21T05:15:21.003Z,-6.80
2018-03-21T05:17:48.514Z,-6.80
2018-03-21T05:20:16.022Z,-6.70
2018-03-21T05:22:45.215Z,-6.70
2018-03-21T05:25:13.465Z,-6.70
2018-03-21T05:27:41.036Z,-6.80
2018-03-21T05:30:08.526Z,-6.90
2018-03-21T05:32:36.025Z,-7.00
2018-03-21T05:35:03.519Z,-7.00
2018-03-21T05:37:31.780Z,-6.90
2018-03-21T05:39:59.274Z,-6.90
2018-03-21T05:42:26.760Z,-6.80
2018-03-21T05:44:54.242Z,-6.80
2018-03-21T05:47:21.827Z,-6.70
2018-03-21T05:49:49.303Z,-6.60
2018-03-21T05:52:16.837Z,-6.50
2018-03-21T05:54:44.444Z,-6.40
2018-03-21T05:57:13.220Z,-6.30
2018-03-21T05:59:40.746Z,-6.30
2018-03-21T06:02:09.000Z,-6.00
2018-03-21T06:04:36.511Z,-6.10
2018-03-21T06:07:04.095Z,-5.90
2018-03-21T06:09:31.682Z,-5.80
2018-03-21T06:11:59.168Z,-5.60
2018-03-21T06:14:26.643Z,-5.60
2018-03-21T06:16:54.242Z,-5.60
2018-03-21T06:19:21.714Z,-5.50
2018-03-21T06:21:49.310Z,-5.40
2018-03-21T06:24:16.798Z,-5.40
2018-03-21T06:26:44.469Z,-5.30
2018-03-21T06:29:11.942Z,-5.20
2018-03-21T06:31:39.427Z,-5.10
2018-03-21T06:34:06.916Z,-5.00
2018-03-21T06:36:34.507Z,-4.90
2018-03-21T06:39:02.091Z,-4.80
2018-03-21T06:41:29.584Z,-4.70
2018-03-21T06:43:57.825Z,-4.50
2018-03-21T06:46:25.358Z,-4.50
2018-03-21T06:48:52.826Z,-4.40
2018-03-21T06:51:20.307Z,-4.30
2018-03-21T06:53:47.790Z,-4.10
2018-03-21T06:56:15.290Z,-4.00
2018-03-21T06:58:42.907Z,-3.90
2018-03-21T07:01:11.174Z,-3.50
2018-03-21T07:03:38.653Z,-3.50
2018-03-21T07:06:06.142Z,-3.30
2018-03-21T07:08:33.740Z,-3.10
2018-03-21T07:11:01.230Z,-2.90
2018-03-21T07:13:40.573Z,-2.70
2018-03-21T07:19:06.686Z,-2.30
2018-03-21T07:21:34.174Z,-2.10
2018-03-21T07:24:03.148Z,-1.70
2018-03-21T07:26:30.660Z,-1.70
2018-03-21T07:28:58.142Z,-1.50
2018-03-21T07:31:25.636Z,-1.30
2018-03-21T07:33:53.111Z,-1.00
2018-03-21T07:36:20.603Z,-0.80
2018-03-21T07:38:48.087Z,-0.30
2018-03-21T07:41:15.568Z,1.10
2018-03-21T07:43:44.070Z,3.60
2018-03-21T07:46:11.538Z,5.90
2018-03-21T07:48:38.999Z,8.10
2018-03-21T07:51:06.471Z,11.00
2018-03-21T07:53:33.942Z,12.60
2018-03-21T07:56:02.195Z,15.30
2018-03-21T07:58:29.669Z,15.30
2018-03-21T08:00:57.130Z,15.10
2018-03-21T08:03:24.591Z,16.60
2018-03-21T08:05:52.840Z,16.20
2018-03-21T08:08:20.345Z,16.10
2018-03-21T08:10:47.779Z,15.40
2018-03-21T08:13:16.028Z,18.00
2018-03-21T08:15:44.010Z,17.90
2018-03-21T08:18:11.589Z,17.20
2018-03-21T08:20:39.055Z,16.40
2018-03-21T08:23:06.515Z,17.20
2018-03-21T08:25:33.983Z,17.10
2018-03-21T08:28:02.272Z,19.10
2018-03-21T08:30:30.515Z,19.20
2018-03-21T08:32:58.244Z,19.10
2018-03-21T08:35:25.718Z,17.10
2018-03-21T08:37:53.200Z,19.70
2018-03-21T08:40:20.662Z,17.90
2018-03-21T08:42:48.132Z,17.50
2018-03-21T08:45:15.607Z,18.20
2018-03-21T08:47:43.624Z,18.80
2018-03-21T08:50:11.102Z,17.10
2018-03-21T08:52:38.599Z,19.30
2018-03-21T08:55:06.050Z,19.40
2018-03-21T08:57:33.567Z,17.90
2018-03-21T09:00:01.032Z,17.70
2018-03-21T09:02:28.498Z,18.60
2018-03-21T09:04:56.015Z,20.00
2018-03-21T09:07:23.487Z,19.20
2018-03-21T09:09:50.980Z,20.10
2018-03-21T09:12:18.448Z,19.70
2018-03-21T09:14:45.915Z,20.10
2018-03-21T09:17:13.455Z,21.20
2018-03-21T09:19:40.918Z,20.40
2018-03-21T09:22:08.411Z,22.80
2018-03-21T09:24:35.900Z,22.80
2018-03-21T09:27:03.360Z,22.30
2018-03-21T09:29:30.876Z,20.40
2018-03-21T09:31:58.407Z,20.20
2018-03-21T09:34:25.859Z,21.10
2018-03-21T09:36:53.329Z,22.90
2018-03-21T09:39:20.795Z,22.90
2018-03-21T09:41:48.283Z,23.90
2018-03-21T09:44:15.756Z,24.30
2018-03-21T09:46:43.319Z,23.00
2018-03-21T09:49:10.852Z,24.20
2018-03-21T09:51:38.315Z,24.10
2018-03-21T09:54:05.778Z,22.50
2018-03-21T09:56:33.249Z,23.30
2018-03-21T09:59:00.715Z,22.80
2018-03-21T10:01:28.943Z,23.40
2018-03-21T10:03:56.407Z,23.40
2018-03-21T10:06:23.866Z,24.90
2018-03-21T10:08:51.329Z,21.50
2018-03-21T10:11:18.808Z,21.50
2018-03-21T10:13:46.270Z,20.50
2018-03-21T10:16:14.419Z,21.80
2018-03-21T10:18:43.183Z,20.60
2018-03-21T10:21:10.665Z,20.60
2018-03-21T10:23:38.695Z,20.50
2018-03-21T10:26:06.267Z,21.50
2018-03-21T10:28:33.750Z,20.60
2018-03-21T10:31:01.215Z,21.00
2018-03-21T10:33:28.680Z,20.40
2018-03-21T10:35:56.164Z,20.50
2018-03-21T10:38:23.635Z,21.50
2018-03-21T10:40:51.200Z,20.80
2018-03-21T10:43:19.439Z,20.70
2018-03-21T10:45:46.939Z,20.70
2018-03-21T10:48:14.418Z,20.80
2018-03-21T10:50:41.884Z,19.90
2018-03-21T10:53:09.382Z,21.50
2018-03-21T10:55:36.852Z,19.90
2018-03-21T10:58:04.354Z,19.20
2018-03-21T11:00:31.826Z,18.80
2018-03-21T11:03:02.103Z,18.90
2018-03-21T11:05:29.566Z,18.30
2018-03-21T11:07:57.032Z,17.40
2018-03-21T11:10:24.502Z,17.50
2018-03-21T11:12:52.009Z,17.80
2018-03-21T11:15:19.498Z,18.60
2018-03-21T11:17:46.959Z,18.70
2018-03-21T11:20:14.473Z,19.30
2018-03-21T11:22:42.034Z,18.70
2018-03-21T11:25:09.560Z,18.20
2018-03-21T11:27:37.000Z,16.60
2018-03-21T11:30:04.499Z,16.00
2018-03-21T11:32:31.963Z,15.10
2018-03-21T11:34:59.459Z,14.20
2018-03-21T11:37:26.920Z,13.50
2018-03-21T11:39:54.390Z,13.70
2018-03-21T11:42:22.613Z,14.20
2018-03-21T11:44:50.089Z,14.20
2018-03-21T11:47:18.311Z,15.00
2018-03-21T11:49:45.826Z,15.00
2018-03-21T11:52:13.295Z,15.40
2018-03-21T11:54:42.434Z,15.30
2018-03-21T11:57:09.891Z,14.90
2018-03-21T11:59:37.404Z,14.00
2018-03-21T12:02:04.867Z,13.30
2018-03-21T12:04:32.338Z,13.30
2018-03-21T12:06:59.816Z,14.00
2018-03-21T12:09:27.282Z,13.50
2018-03-21T12:11:54.740Z,14.10
2018-03-21T12:14:22.994Z,13.90
2018-03-21T12:16:51.623Z,13.80
2018-03-21T12:19:19.078Z,14.00
2018-03-21T12:21:46.548Z,12.80
2018-03-21T12:24:14.840Z,12.50
2018-03-21T12:26:42.340Z,12.80
2018-03-21T12:29:09.809Z,12.90
2018-03-21T12:31:37.327Z,12.40
2018-03-21T12:34:04.845Z,11.20
2018-03-21T12:36:32.303Z,11.30
2018-03-21T12:38:59.776Z,11.80
2018-03-21T12:41:27.238Z,12.70
2018-03-21T12:43:54.779Z,13.30
2018-03-21T12:46:22.251Z,13.30
2018-03-21T12:48:49.732Z,13.00
2018-03-21T12:51:17.205Z,13.10
2018-03-21T12:53:44.683Z,13.10
2018-03-21T12:56:12.474Z,13.00
2018-03-21T12:58:39.877Z,13.60
2018-03-21T13:01:07.347Z,13.70
2018-03-21T13:03:34.848Z,13.10
2018-03-21T13:06:02.314Z,12.50
2018-03-21T13:08:29.794Z,12.20
2018-03-21T13:10:57.250Z,12.40
2018-03-21T13:13:24.778Z,12.70
2018-03-21T13:15:52.367Z,13.00
2018-03-21T13:18:19.826Z,12.50
2018-03-21T13:20:47.319Z,12.10
2018-03-21T13:23:14.788Z,11.50
2018-03-21T13:25:42.251Z,12.00
2018-03-21T13:28:09.731Z,12.70
2018-03-21T13:30:37.207Z,13.10
2018-03-21T13:33:05.389Z,13.00
2018-03-21T13:35:33.933Z,12.90
2018-03-21T13:38:01.435Z,12.90
2018-03-21T13:40:28.917Z,12.90
2018-03-21T13:42:56.377Z,13.20
2018-03-21T13:45:23.854Z,12.60
2018-03-21T13:47:51.321Z,12.80
2018-03-21T13:50:19.652Z,12.90
2018-03-21T13:52:47.054Z,12.90
2018-03-21T13:55:14.514Z,12.10
2018-03-21T13:57:42.022Z,12.10
2018-03-21T14:00:09.499Z,12.60
2018-03-21T14:02:36.967Z,12.60
2018-03-21T14:05:05.298Z,12.30
2018-03-21T14:07:32.762Z,11.80
2018-03-21T14:10:00.260Z,11.90
2018-03-21T14:12:27.719Z,12.10
2018-03-21T14:14:55.236Z,11.70
2018-03-21T14:17:22.696Z,11.10
2018-03-21T14:19:50.164Z,11.10
2018-03-21T14:22:17.694Z,11.20
2018-03-21T14:24:45.163Z,11.60
2018-03-21T14:27:12.647Z,11.60
2018-03-21T14:29:40.162Z,11.30
2018-03-21T14:32:07.628Z,11.10
2018-03-21T14:34:35.102Z,11.00
2018-03-21T14:37:02.575Z,10.90
2018-03-21T14:39:30.039Z,10.00
2018-03-21T14:41:57.496Z,10.40
2018-03-21T14:44:25.746Z,10.50
2018-03-21T14:46:53.207Z,10.40
2018-03-21T14:49:20.723Z,10.20
2018-03-21T14:51:48.952Z,10.00
2018-03-21T14:54:16.509Z,10.00
2018-03-21T14:56:44.047Z,10.40
2018-03-21T14:59:11.503Z,10.40
2018-03-21T15:01:39.059Z,9.90
2018-03-21T15:04:06.535Z,10.10
2018-03-21T15:06:33.999Z,10.10
2018-03-21T15:09:01.734Z,9.70
2018-03-21T15:11:29.251Z,9.60
2018-03-21T15:13:56.679Z,9.00
2018-03-21T15:16:24.764Z,8.90
2018-03-21T15:18:52.219Z,8.60
2018-03-21T15:21:19.671Z,8.40
2018-03-21T15:23:48.081Z,8.00
2018-03-21T15:26:16.399Z,7.90
2018-03-21T15:28:44.671Z,7.90
2018-03-21T15:31:13.668Z,7.70
2018-03-21T15:33:41.203Z,7.70
2018-03-21T15:36:09.425Z,7.70
2018-03-21T15:38:36.883Z,7.70
2018-03-21T15:41:05.116Z,7.00
2018-03-21T15:43:32.570Z,6.90
2018-03-21T15:46:00.837Z,6.70
2018-03-21T15:48:28.294Z,6.70
2018-03-21T15:50:55.809Z,6.60
2018-03-21T15:53:23.258Z,6.60
2018-03-21T15:55:50.715Z,6.60
2018-03-21T15:58:18.952Z,6.50
2018-03-21T16:00:46.464Z,6.40
2018-03-21T16:03:13.925Z,6.40
2018-03-21T16:05:41.414Z,6.30
2018-03-21T16:08:08.878Z,6.30
2018-03-21T16:10:36.347Z,6.10
2018-03-21T16:13:04.347Z,6.10
2018-03-21T16:15:31.862Z,5.80
2018-03-21T16:18:00.162Z,5.70
2018-03-21T16:20:27.630Z,5.60
2018-03-21T16:22:55.102Z,5.60
2018-03-21T16:25:22.563Z,5.40
2018-03-21T16:27:50.794Z,5.40
2018-03-21T16:30:18.251Z,5.30
2018-03-21T16:32:46.476Z,5.40
2018-03-21T16:35:14.702Z,5.40
2018-03-21T16:37:42.822Z,5.30
2018-03-21T16:40:10.671Z,5.40
2018-03-21T16:42:38.159Z,5.20
2018-03-21T16:45:06.407Z,4.90
2018-03-21T16:47:34.299Z,4.90
2018-03-21T16:50:01.779Z,4.90
2018-03-21T16:52:29.258Z,4.70
2018-03-21T16:54:56.712Z,4.60
2018-03-21T16:57:24.178Z,4.50
2018-03-21T16:59:52.416Z,4.20
2018-03-21T17:02:19.907Z,4.20
2018-03-21T17:04:47.366Z,4.20
2018-03-21T17:07:14.916Z,4.00
2018-03-21T17:09:42.541Z,4.00
2018-03-21T17:12:10.235Z,3.80
2018-03-21T17:14:37.742Z,3.80
2018-03-21T17:17:05.204Z,3.70
2018-03-21T17:19:32.718Z,3.60
2018-03-21T17:22:00.239Z,3.40
2018-03-21T17:24:28.500Z,3.20
2018-03-21T17:26:55.962Z,3.20
2018-03-21T17:29:23.426Z,3.10
2018-03-21T17:31:50.944Z,3.00
2018-03-21T17:34:18.403Z,2.80
2018-03-21T17:36:45.863Z,2.60
2018-03-21T17:39:16.102Z,2.20
2018-03-21T17:41:44.333Z,2.20
2018-03-21T17:44:11.839Z,2.10
2018-03-21T17:46:39.296Z,2.00
2018-03-21T17:49:06.750Z,1.90
2018-03-21T17:51:35.103Z,1.70
2018-03-21T17:54:02.563Z,1.70
2018-03-21T17:56:30.059Z,1.60
2018-03-21T17:58:58.571Z,1.40
2018-03-21T18:01:29.219Z,1.30
2018-03-21T18:03:56.677Z,1.20
2018-03-21T18:06:24.210Z,1.10
2018-03-21T18:08:52.430Z,1.10
2018-03-21T18:11:19.899Z,1.00
2018-03-21T18:13:47.382Z,1.00
2018-03-21T18:16:15.598Z,0.70
2018-03-21T18:18:43.064Z,0.70
2018-03-21T18:21:10.527Z,0.60
2018-03-21T18:23:38.012Z,0.50
2018-03-21T18:26:05.518Z,0.40
2018-03-21T18:28:33.208Z,0.20
2018-03-21T18:31:00.789Z,0.30
2018-03-21T18:33:28.272Z,0.40
2018-03-21T18:35:55.724Z,0.30
2018-03-21T18:38:23.968Z,0.40
2018-03-21T18:40:51.422Z,0.30
2018-03-21T18:43:18.911Z,0.30
2018-03-21T18:45:47.163Z,0.20
2018-03-21T18:48:16.140Z,0.20
2018-03-21T18:50:43.606Z,0.10
2018-03-21T18:53:11.927Z,0.10
2018-03-21T18:55:39.380Z,0.10
2018-03-21T18:58:07.599Z,0.00
2018-03-21T19:00:36.003Z,0.00
2018-03-21T19:03:04.195Z,0.00
2018-03-21T19:05:31.777Z,-0.10
2018-03-21T19:07:59.264Z,-0.10
2018-03-21T19:10:26.732Z,-0.20
2018-03-21T19:12:55.121Z,-0.30
2018-03-21T19:15:22.586Z,-0.30
2018-03-21T19:17:50.050Z,-0.40
2018-03-21T19:20:17.543Z,-0.50
2018-03-21T19:22:45.014Z,-0.50
2018-03-21T19:25:12.484Z,-0.60
2018-03-21T19:27:39.942Z,-0.60
2018-03-21T19:30:08.207Z,-0.70
2018-03-21T19:32:35.704Z,-0.70
2018-03-21T19:35:03.217Z,-0.80
2018-03-21T19:37:30.698Z,-0.90
2018-03-21T19:39:58.980Z,-0.90
2018-03-21T19:42:27.230Z,-0.90
2018-03-21T19:44:54.699Z,-1.00
2018-03-21T19:47:22.171Z,-1.00
2018-03-21T19:49:50.043Z,-1.00
2018-03-21T19:52:17.603Z,-1.00
2018-03-21T19:54:46.623Z,-1.10
2018-03-21T19:57:14.069Z,-1.10
2018-03-21T19:59:42.486Z,-1.00
2018-03-21T20:02:09.956Z,-1.20
2018-03-21T20:04:37.899Z,-1.20
2018-03-21T20:07:05.410Z,-1.30
2018-03-21T20:09:34.196Z,-1.40
2018-03-21T20:12:01.671Z,-1.40
2018-03-21T20:14:29.188Z,-1.40
2018-03-21T20:16:57.441Z,-1.40
2018-03-21T20:19:24.904Z,-1.40
2018-03-21T20:21:52.379Z,-1.40
2018-03-21T20:24:19.899Z,-1.40
2018-03-21T20:26:47.683Z,-1.50
2018-03-21T20:29:15.159Z,-1.60
2018-03-21T20:31:42.652Z,-1.60
2018-03-21T20:34:10.138Z,-1.60
2018-03-21T20:36:37.670Z,-1.60
2018-03-21T20:39:05.095Z,-1.60
2018-03-21T20:41:32.574Z,-1.70
2018-03-21T20:44:00.043Z,-1.80
2018-03-21T20:46:27.518Z,-1.80
2018-03-21T20:48:54.992Z,-1.80
2018-03-21T20:51:24.059Z,-1.90
2018-03-21T20:53:51.532Z,-1.90
2018-03-21T20:56:19.063Z,-1.90
2018-03-21T20:58:46.543Z,-1.90
2018-03-21T21:01:14.006Z,-1.90
2018-03-21T21:03:41.480Z,-2.00
2018-03-21T21:06:08.960Z,-2.00
2018-03-21T21:08:36.482Z,-2.00
2018-03-21T21:11:03.967Z,-2.00
2018-03-21T21:13:31.539Z,-2.00
2018-03-21T21:15:59.168Z,-1.90
2018-03-21T21:18:27.431Z,-2.00
2018-03-21T21:20:54.906Z,-2.00
2018-03-21T21:23:23.945Z,-2.00
2018-03-21T21:25:51.413Z,-2.10
2018-03-21T21:28:18.995Z,-2.10
2018-03-21T21:30:46.463Z,-2.20
2018-03-21T21:33:13.931Z,-2.20
2018-03-21T21:35:41.399Z,-2.20
2018-03-21T21:38:09.635Z,-2.20
2018-03-21T21:40:37.108Z,-2.20
2018-03-21T21:43:04.922Z,-2.20
2018-03-21T21:45:32.406Z,-2.10
2018-03-21T21:47:59.887Z,-2.10
2018-03-21T21:50:27.371Z,-2.20
2018-03-21T21:52:54.950Z,-2.30
2018-03-21T21:55:22.426Z,-2.30
2018-03-21T21:57:49.920Z,-2.30
2018-03-21T22:00:17.398Z,-2.40
2018-03-21T22:02:44.931Z,-2.30
2018-03-21T22:05:13.182Z,-2.50
2018-03-21T22:07:40.698Z,-2.50
2018-03-21T22:10:08.265Z,-2.50
2018-03-21T22:12:37.241Z,-2.50
2018-03-21T22:15:05.570Z,-2.50
2018-03-21T22:17:33.075Z,-2.50
2018-03-21T22:20:00.563Z,-2.60
2018-03-21T22:22:28.053Z,-2.70
2018-03-21T22:24:55.531Z,-2.80
2018-03-21T22:27:23.006Z,-2.90
2018-03-21T22:29:50.463Z,-2.90
2018-03-21T22:32:17.939Z,-3.00
2018-03-21T22:34:46.186Z,-3.00
2018-03-21T22:37:13.766Z,-3.00
2018-03-21T22:39:41.231Z,-2.90
2018-03-21T22:42:08.700Z,-2.90
2018-03-21T22:44:36.166Z,-2.90
2018-03-21T22:47:05.211Z,-2.80
2018-03-21T22:49:32.726Z,-2.80
2018-03-21T22:52:00.187Z,-2.70
2018-03-21T22:54:27.765Z,-2.80
2018-03-21T22:56:55.154Z,-2.80
2018-03-21T22:59:22.654Z,-2.90
2018-03-21T23:01:50.113Z,-3.00
2018-03-21T23:04:17.574Z,-3.00
2018-03-21T23:06:45.100Z,-3.00
2018-03-21T23:09:12.582Z,-3.00
2018-03-21T23:11:40.046Z,-3.00
2018-03-21T23:14:07.508Z,-3.00
2018-03-21T23:16:36.015Z,-3.00
2018-03-21T23:19:03.572Z,-3.00
2018-03-21T23:21:31.115Z,-3.00
2018-03-21T23:23:58.601Z,-3.00
2018-03-21T23:26:26.066Z,-2.90
2018-03-21T23:28:53.533Z,-3.00
2018-03-21T23:31:21.002Z,-3.00
2018-03-21T23:33:49.239Z,-3.00
2018-03-21T23:36:16.736Z,-3.00
2018-03-21T23:38:44.239Z,-3.00
2018-03-21T23:41:11.723Z,-3.10
2018-03-21T23:43:39.829Z,-3.20
2018-03-21T23:46:07.299Z,-3.20
2018-03-21T23:48:34.941Z,-3.30
2018-03-21T23:51:02.416Z,-3.40
2018-03-21T23:53:29.895Z,-3.40
2018-03-21T23:55:58.161Z,-3.60
2018-03-21T23:58:25.739Z,-3.60
